Gates, NY

7:36 PM EST on March 04, 2015 (GMT -0500)
Raspberry Patch - North Greece | Change Station
CLOSE
Current Station
Personal Weather Station
Location: Rochester, NY
Elevation: 325 ft
Nearby Weather Stations

Elev 325 ft 43.25 °N, 77.73 °W | Updated 9 seconds ago

Overcast
Overcast
30.4 °F
Feels Like 27 °F
N
3.6
Wind Variable Wind from WSW
Gusts 5.8 mph

Today
High -- | Low -- °F
--% Chance of Precip.
Yesterday
High -- | Low -- °F
Precip. -- in
6:42 AM 6:03 PM
Full, 100% visible
Pressure 29.96 in
Visibility 10.0 miles
Clouds Scattered Clouds 2700 ft
Mostly Cloudy 3300 ft
Overcast 4800 ft
Windchill 27 °F
Dew Point -3 °F
Humidity 23%
Rainfall 0.00 in
Snow Depth Not available.
UV 0 out of 12
Pollen 1.30 out of 12
Air Quality Not available.
Flu Activity Not available.
METAR KROC 042354Z 26009KT 10SM SCT027 BKN033 OVC048 00/M06 A2993 RMK AO2 SNE48 SLP143 SCT V BKN 4/014 P0000 60000 T00001056 10017 20000 53017

More Conditions Fewer Conditions

Pressure 29.96 in
Visibility 10.0 miles
Clouds Scattered Clouds 2700 ft
Mostly Cloudy 3300 ft
Overcast 4800 ft
Windchill 27 °F
Dew Point -3 °F
Humidity 23%
Rainfall 0.00 in
Snow Depth Not available.
UV 0 out of 12
Pollen 1.30 out of 12
Air Quality Not available.
Flu Activity Not available.
METAR KROC 042354Z 26009KT 10SM SCT027 BKN033 OVC048 00/M06 A2993 RMK AO2 SNE48 SLP143 SCT V BKN 4/014 P0000 60000 T00001056 10017 20000 53017

More Conditions Fewer Conditions

10-Day Weather Forecast

Almanac

Astronomy

Mar. 04, 2015 Rise Set
Actual Time
Civil Twilight
Nautical Twilight
Astronomical Twilight
Moon
Length of Visible Light
Length of Day
Tomorrow will be .
, % of the Moon is Illuminated

Today's Extremes

State Highs State Lows

Community

WunderPhotos

Upload Photos

1,802,606 photos uploaded!

WunderBlogs® & News

Nearby

Air Quality

  Air Quality AQ Index Pollutant
Not available.

Snow Depth

Station Depth Elevation

Earthquake Activity

City Distance Mag. Time & Date
Minimum magnitude displayed is 2.5.

Coastal Water Temperatures

Place Temperature

Nearby Weather Stations